LPPRGMAD

Guest
Details From LPPR - Porto
To GMAD - Agadir AL MASSIRA
Flight Number -
Tags generated
Created
Modified
Stats Distance 670 nm / 1,242 km
Max Altitude 35,000 ft / 10,668 m
Waypoints 11
Social Downloads 1
Likes 0
Share VATSIM

Download

Looking for another format? Having issues loading an existing format? Contact us
Advertisement - Login to hide

Notes

Basic altitude profile: - Ascent Rate: 2500ft/min - Ascent Speed: 280kts - Cruise Altitude: 35000ft - Cruise Speed: 420kts - Descent Rate: 1900ft/min - Descent Speed: 250kts Options: - Use NATs: yes - Use PACOTS: yes - Use low airways: no - Use high airways: yes

Route

LPPR FTM UP600 VFA UM188 OSLAD UR724 ESS GMAD

ID Type Via Altitude Latitude Longitude Leg Dist Tot Dist Heading (true) Name
O LPPR APT - 0 ft / 0 m 41.24793˚ -8.68122˚ - 0 nm - Porto
FTM VOR - 33,000 ft / 10,058 m 39.66608˚ -8.49321˚ 95 nm 95 nm 175° / 175° FATIMA VOR-DME
MAGUM FIX UP600 (AWY-HI) 35,000 ft / 10,668 m 39.16750˚ -8.39250˚ 30 nm 125 nm 171° / 171° -
SOTEX FIX UP600 (AWY-HI) 35,000 ft / 10,668 m 38.29278˚ -8.22000˚ 53 nm 178 nm 171° / 171° -
VFA VOR UP600 (AWY-HI) 35,000 ft / 10,668 m 37.01352˚ -7.97501˚ 77 nm 256 nm 171° / 171° FARO VOR-DME
OBOLO FIX UM188 (AWY-HI) 34,000 ft / 10,363 m 36.53139˚ -8.13250˚ 29 nm 286 nm 195° / 195° -
OSLAD FIX UM188 (AWY-HI) 34,000 ft / 10,363 m 35.96667˚ -8.31417˚ 35 nm 321 nm 195° / 194° -
IBALU FIX UR724 (AWY-HI) 34,000 ft / 10,363 m 34.44444˚ -8.78917˚ 94 nm 415 nm 194° / 194° -
MOKRI FIX UR724 (AWY-HI) 34,000 ft / 10,363 m 33.16083˚ -9.17417˚ 79 nm 495 nm 194° / 194° -
ESS VOR UR724 (AWY-HI) 24,500 ft / 7,468 m 31.40124˚ -9.68696˚ 108 nm 604 nm 194° / 194° ESSAOUIRA VOR-DME
O GMAD APT - 0 ft / 0 m 30.32262˚ -9.41153˚ 66 nm 670 nm 168° / 168° Agadir AL MASSIRA

Altitude Profile

Advertisement - Login to hide

Weather


0- 5 10 15 20 25 30 35+ Temperature / ° C

Clouds and Precipitation
Forecast for 2017-12-14 00:00 UTC. Updated an hour ago

Ground ~20,000 ft ~40,000 ft Winds

LPPR

Details ICAO LPPR (OPO)
Name Porto
Region Portugal
Timezone Europe/Lisbon (UTC+0.0)
Stats Elevation 228 ft / 69 m (AMSL)
Location 41.247932° -8.681221°
Runways 1
Magnetic Variation 2.340° W

METAR

LPPR 140030Z 21008KT 3000 -DZ BR OVC002 13/13 Q1025

Decode

TAF

TAF LPPR 132300Z 1400/1424 19010KT 5000 -RADZ BR BKN005 TEMPO 1400/1411 1500 DZ BR BKN001 PROB30 TEMPO 1400/1409 0300 FG VV001 BECMG 1411/1413 26010KT 9999 NSW SCT005 BKN012 TEMPO 1413/1424 3000 -RADZ BR SCT002 BKN005

Decode

Departure Runways

ID Width Length Bearing (true) Bearing (mag) Surface Threshold Offset Overrun Length
17 148 ft / 45 m 11,451 ft / 3,490 m 168.88° 171.22° Asphalt 984 ft / 300 m 220 ft / 67 m
35 148 ft / 45 m 11,451 ft / 3,490 m 348.89° 351.23° Asphalt 492 ft / 150 m 370 ft / 113 m

GMAD

Details ICAO GMAD
Name Agadir AL MASSIRA
Region Morocco
Timezone Africa/Casablanca (UTC+0.0)
Stats Elevation 250 ft / 76 m (AMSL)
Location 30.322623° -9.411528°
Runways 1
Magnetic Variation 2.482° W

METAR

GMAD 140030Z 11004KT CAVOK 11/08 Q1023 NOSIG

Decode

TAF

TAF GMAD 132300Z 1400/1506 06008KT CAVOK= TAF GMME 132300Z 1400/1506 12005KT CAVOK PROB30 TEMPO 1404/1408 VRB02KT 3000 BR SCT008 BECMG 14117/1419 32008KT 5000 BKN015

Decode

Destination Runways

ID Width Length Bearing (true) Bearing (mag) Surface Threshold Offset Overrun Length
10 148 ft / 45 m 10,509 ft / 3,203 m 91.58° 94.06° Asphalt 0 ft / 0 m 0 ft / 0 m
28 148 ft / 45 m 10,509 ft / 3,203 m 271.60° 274.08° Asphalt 0 ft / 0 m 0 ft / 0 m

Approach Navaids

Runway Type Ident Frequency Range Bearing (true) Bearing (mag) Slope Elevation
28 Localiser ADA 110.30 MHz 18 nm / 33 km 273.07° 275.55° - 250 ft / 76 m (AMSL)
28 Glidescope ADA 110.30 MHz 10 nm / 19 km 271.59° 274.07° 3.00° 250 ft / 76 m (AMSL)